RPC9307 RPLB-RPLL
Flight info
| Callsign | RPC9307 |
|---|---|
| Flight time | N/A |
| Altitude | 11000 |
| Route | EISMA1H BAGAC DCT SAMAT DCT GAILE DCT MIA |
| Aircraft | B58T/L-SDFGRY/C |
Departure
| Time | N/A |
|---|---|
| Airport | Subic Bay International Airport / Naval Air Station Cubi Point (RPLB) |
Arrival
| Time | 2026-05-07 07:16 |
|---|---|
| Airport | Ninoy Aquino International Airport (RPLL) |
| Time | Latitude | Longitude | Altitude | Speed | Heading |
|---|---|---|---|---|---|
| 2026-05-07 06:53 | 14.54998 | 120.64878 | 6818 ft | 170 kts | 95° |
| 2026-05-07 06:53 | 14.54862 | 120.66095 | 6702 ft | 169 kts | 95° |
| 2026-05-07 06:53 | 14.54726 | 120.67306 | 6573 ft | 169 kts | 95° |
| 2026-05-07 06:53 | 14.54592 | 120.68508 | 6455 ft | 168 kts | 95° |
| 2026-05-07 06:54 | 14.54458 | 120.69708 | 6332 ft | 168 kts | 95° |
| 2026-05-07 06:54 | 14.54325 | 120.70888 | 6211 ft | 167 kts | 95° |
| 2026-05-07 06:54 | 14.54192 | 120.72080 | 6082 ft | 167 kts | 95° |
| 2026-05-07 06:54 | 14.54059 | 120.73268 | 5963 ft | 166 kts | 95° |
| 2026-05-07 06:55 | 14.53929 | 120.74428 | 5951 ft | 160 kts | 95° |
| 2026-05-07 06:55 | 14.53803 | 120.75555 | 5946 ft | 156 kts | 95° |
| 2026-05-07 06:55 | 14.53679 | 120.76656 | 5948 ft | 153 kts | 95° |
| 2026-05-07 06:55 | 14.53557 | 120.77740 | 5941 ft | 151 kts | 95° |
| 2026-05-07 06:56 | 14.53437 | 120.78809 | 5944 ft | 149 kts | 95° |
| 2026-05-07 06:56 | 14.53318 | 120.79872 | 5942 ft | 149 kts | 96° |
| 2026-05-07 06:56 | 14.53199 | 120.80929 | 5944 ft | 148 kts | 95° |
| 2026-05-07 06:56 | 14.53079 | 120.82004 | 5947 ft | 153 kts | 95° |
| 2026-05-07 06:57 | 14.52954 | 120.83112 | 5961 ft | 158 kts | 96° |
| 2026-05-07 06:57 | 14.52826 | 120.84247 | 5966 ft | 161 kts | 95° |
| 2026-05-07 06:57 | 14.52695 | 120.85406 | 5964 ft | 164 kts | 96° |
| 2026-05-07 06:57 | 14.52564 | 120.86565 | 5965 ft | 165 kts | 96° |
| 2026-05-07 06:58 | 14.52431 | 120.87748 | 5968 ft | 166 kts | 96° |
| 2026-05-07 06:58 | 14.52297 | 120.88938 | 5968 ft | 167 kts | 96° |
| 2026-05-07 06:58 | 14.52162 | 120.90128 | 5966 ft | 167 kts | 95° |
| 2026-05-07 06:58 | 14.51805 | 120.91267 | 5959 ft | 168 kts | 116° |
| 2026-05-07 06:59 | 14.51396 | 120.92387 | 5966 ft | 168 kts | 98° |
| 2026-05-07 06:59 | 14.51256 | 120.93712 | 5968 ft | 174 kts | 94° |
| 2026-05-07 06:59 | 14.51176 | 120.94862 | 5960 ft | 178 kts | 93° |
| 2026-05-07 06:59 | 14.51109 | 120.96131 | 5964 ft | 176 kts | 92° |
| 2026-05-07 07:00 | 14.51043 | 120.97381 | 5961 ft | 173 kts | 92° |
| 2026-05-07 07:00 | 14.50977 | 120.98621 | 5968 ft | 174 kts | 92° |
| 2026-05-07 07:00 | 14.50914 | 120.99871 | 5963 ft | 174 kts | 92° |
| 2026-05-07 07:00 | 14.50854 | 121.01099 | 5968 ft | 174 kts | 92° |
| 2026-05-07 07:01 | 14.50787 | 121.02357 | 5964 ft | 171 kts | 92° |
| 2026-05-07 07:01 | 14.50616 | 121.03519 | 6093 ft | 165 kts | 105° |
| 2026-05-07 07:01 | 14.50247 | 121.04642 | 6122 ft | 167 kts | 105° |
| 2026-05-07 07:01 | 14.49892 | 121.05797 | 6110 ft | 170 kts | 105° |
| 2026-05-07 07:02 | 14.49551 | 121.06964 | 6123 ft | 170 kts | 104° |
| 2026-05-07 07:02 | 14.49231 | 121.08151 | 6082 ft | 171 kts | 103° |
| 2026-05-07 07:02 | 14.48919 | 121.09342 | 6063 ft | 172 kts | 103° |
| 2026-05-07 07:02 | 14.48598 | 121.10530 | 6067 ft | 171 kts | 109° |
| 2026-05-07 07:03 | 14.47954 | 121.11554 | 6112 ft | 171 kts | 130° |
| 2026-05-07 07:03 | 14.46956 | 121.12218 | 6078 ft | 177 kts | 156° |
| 2026-05-07 07:03 | 14.45722 | 121.12283 | 6093 ft | 183 kts | 192° |
| 2026-05-07 07:03 | 14.44619 | 121.11626 | 6064 ft | 190 kts | 230° |
| 2026-05-07 07:04 | 14.44202 | 121.10332 | 6005 ft | 194 kts | 272° |
| 2026-05-07 07:04 | 14.44606 | 121.09019 | 5900 ft | 195 kts | 307° |
| 2026-05-07 07:04 | 14.45541 | 121.08023 | 5855 ft | 192 kts | 323° |
| 2026-05-07 07:04 | 14.46636 | 121.07255 | 5817 ft | 190 kts | 337° |
| 2026-05-07 07:05 | 14.47831 | 121.06677 | 5756 ft | 190 kts | 340° |
| 2026-05-07 07:05 | 14.49032 | 121.06148 | 5813 ft | 184 kts | 340° |
| 2026-05-07 07:05 | 14.50038 | 121.05354 | 5858 ft | 188 kts | 301° |
| 2026-05-07 07:05 | 14.50530 | 121.04103 | 5885 ft | 190 kts | 291° |
| 2026-05-07 07:06 | 14.50913 | 121.02789 | 5865 ft | 193 kts | 287° |
| 2026-05-07 07:06 | 14.51219 | 121.01433 | 5858 ft | 193 kts | 285° |
| 2026-05-07 07:06 | 14.51550 | 121.00104 | 5929 ft | 189 kts | 285° |
| 2026-05-07 07:06 | 14.51909 | 120.98793 | 5965 ft | 189 kts | 290° |
| 2026-05-07 07:07 | 14.52404 | 120.97580 | 5973 ft | 183 kts | 298° |
| 2026-05-07 07:07 | 14.53003 | 120.96409 | 5684 ft | 185 kts | 302° |
| 2026-05-07 07:07 | 14.53661 | 120.95287 | 5656 ft | 181 kts | 303° |
| 2026-05-07 07:07 | 14.54330 | 120.94159 | 5363 ft | 188 kts | 304° |
| 2026-05-07 07:08 | 14.55040 | 120.93028 | 5249 ft | 186 kts | 305° |
| 2026-05-07 07:08 | 14.55755 | 120.91922 | 5173 ft | 184 kts | 306° |
| 2026-05-07 07:08 | 14.56474 | 120.90811 | 4990 ft | 187 kts | 306° |
| 2026-05-07 07:08 | 14.57167 | 120.89683 | 4848 ft | 185 kts | 303° |
| 2026-05-07 07:09 | 14.57862 | 120.88563 | 4704 ft | 184 kts | 308° |
| 2026-05-07 07:09 | 14.58643 | 120.87533 | 4502 ft | 178 kts | 312° |
| 2026-05-07 07:09 | 14.59442 | 120.86565 | 4185 ft | 176 kts | 313° |
| 2026-05-07 07:09 | 14.60199 | 120.85626 | 3940 ft | 166 kts | 310° |
| 2026-05-07 07:10 | 14.60872 | 120.84653 | 3589 ft | 165 kts | 306° |
| 2026-05-07 07:10 | 14.61600 | 120.83815 | 3428 ft | 152 kts | 329° |
| 2026-05-07 07:10 | 14.62536 | 120.83403 | 3262 ft | 144 kts | 352° |
| 2026-05-07 07:10 | 14.63487 | 120.83487 | 3058 ft | 138 kts | 28° |
| 2026-05-07 07:11 | 14.64115 | 120.84206 | 2817 ft | 139 kts | 71° |
| 2026-05-07 07:11 | 14.64063 | 120.85174 | 2655 ft | 140 kts | 111° |
| 2026-05-07 07:11 | 14.63523 | 120.86018 | 2561 ft | 142 kts | 131° |
| 2026-05-07 07:11 | 14.62846 | 120.86768 | 2459 ft | 143 kts | 129° |
| 2026-05-07 07:12 | 14.62209 | 120.87557 | 2372 ft | 143 kts | 126° |
| 2026-05-07 07:12 | 14.61611 | 120.88389 | 2216 ft | 147 kts | 124° |
| 2026-05-07 07:12 | 14.61006 | 120.89246 | 2087 ft | 147 kts | 126° |
| 2026-05-07 07:12 | 14.60389 | 120.90093 | 1932 ft | 149 kts | 127° |
| 2026-05-07 07:13 | 14.59805 | 120.90971 | 1782 ft | 149 kts | 117° |
| 2026-05-07 07:13 | 14.59388 | 120.91939 | 1673 ft | 147 kts | 112° |
| 2026-05-07 07:13 | 14.58957 | 120.92885 | 1553 ft | 146 kts | 118° |
| 2026-05-07 07:13 | 14.58459 | 120.93799 | 1444 ft | 145 kts | 119° |
| 2026-05-07 07:14 | 14.57918 | 120.94672 | 1371 ft | 143 kts | 125° |
| 2026-05-07 07:14 | 14.57240 | 120.95414 | 1305 ft | 142 kts | 138° |
| 2026-05-07 07:14 | 14.56528 | 120.96096 | 1282 ft | 132 kts | 134° |
| 2026-05-07 07:14 | 14.55900 | 120.96727 | 1140 ft | 125 kts | 135° |
| 2026-05-07 07:15 | 14.55282 | 120.97351 | 1027 ft | 124 kts | 133° |
| 2026-05-07 07:15 | 14.54679 | 120.97992 | 875 ft | 126 kts | 133° |
| 2026-05-07 07:15 | 14.54085 | 120.98614 | 719 ft | 119 kts | 133° |
| 2026-05-07 07:15 | 14.53497 | 120.99181 | 524 ft | 112 kts | 133° |
| 2026-05-07 07:16 | 14.52964 | 120.99761 | 290 ft | 111 kts | 131° |
| 2026-05-07 07:16 | 14.52446 | 121.00312 | 117 ft | 104 kts | 133° |
| 2026-05-07 07:16 | 14.51996 | 121.00782 | 63 ft | 74 kts | 132° |
| 2026-05-07 07:16 | 14.51699 | 121.01082 | 61 ft | 47 kts | 132° |
| 2026-05-07 07:17 | 14.51592 | 121.01234 | 64 ft | 10 kts | 68° |
| 2026-05-07 07:17 | 14.51625 | 121.01272 | 64 ft | 7 kts | 38° |
| 2026-05-07 07:17 | 14.51651 | 121.01284 | 63 ft | 7 kts | 334° |
| 2026-05-07 07:17 | 14.51708 | 121.01225 | 63 ft | 16 kts | 316° |
| 2026-05-07 07:18 | 14.51812 | 121.01118 | 64 ft | 25 kts | 316° |
| 2026-05-07 07:18 | 14.51943 | 121.00978 | 63 ft | 29 kts | 314° |
| 2026-05-07 07:18 | 14.52094 | 121.00823 | 58 ft | 30 kts | 317° |
| 2026-05-07 07:18 | 14.52166 | 121.00751 | 63 ft | 7 kts | 293° |
| 2026-05-07 07:19 | 14.52161 | 121.00720 | 63 ft | 7 kts | 231° |
| 2026-05-07 07:19 | 14.52126 | 121.00665 | 59 ft | 11 kts | 253° |
| 2026-05-07 07:19 | 14.52060 | 121.00626 | 58 ft | 13 kts | 189° |
| 2026-05-07 07:19 | 14.51959 | 121.00609 | 63 ft | 16 kts | 189° |
| 2026-05-07 07:20 | 14.51874 | 121.00591 | 63 ft | 10 kts | 207° |
| 2026-05-07 07:20 | 14.51837 | 121.00517 | 63 ft | 13 kts | 266° |
| 2026-05-07 07:20 | 14.51853 | 121.00484 | 61 ft | 0 kts | 329° |